Time;durP1;ratioP1;P1;durP2;ratioP2;P2;SDS_P1;SDS_P2;PMS_P1;PMS_P2;Temp;Humidity;BMP_temperature;BMP_pressure;BME280_temperature;BME280_humidity;BME280_pressure;Samples;Min_cycle;Max_cycle;Signal;HPM_P1;HPM_P2
2023/09/25 00:01:33;;;;;;;7.32;1.85;;;17.30;99.90;;;;;;5131996;27;20456;-46
2023/09/25 00:03:59;;;;;;;6.95;1.90;;;17.40;99.90;;;;;;5132298;27;20031;-44
2023/09/25 00:06:25;;;;;;;6.60;1.52;;;17.40;99.90;;;;;;5113642;27;20019;-48
2023/09/25 00:08:50;;;;;;;10.07;2.20;;;17.40;99.90;;;;;;5132374;27;20038;-51
2023/09/25 00:11:16;;;;;;;6.22;2.20;;;17.50;99.90;;;;;;5132612;27;20111;-53
2023/09/25 00:13:42;;;;;;;8.85;2.08;;;17.40;99.90;;;;;;5131899;27;20472;-53
2023/09/25 00:16:16;;;;;;;7.13;1.52;;;17.50;99.90;;;;;;5132019;27;20380;-52
2023/09/25 00:18:42;;;;;;;7.53;1.85;;;17.50;99.90;;;;;;5132383;27;20031;-53
2023/09/25 00:21:08;;;;;;;5.85;1.73;;;17.50;99.90;;;;;;5132225;27;20038;-41
2023/09/25 00:23:34;;;;;;;10.32;2.08;;;17.50;99.90;;;;;;5132101;27;20015;-43
2023/09/25 00:26:03;;;;;;;5.05;1.88;;;17.50;99.90;;;;;;5132073;27;20097;-42
2023/09/25 00:28:29;;;;;;;4.38;2.20;;;17.60;99.90;;;;;;5131851;27;20102;-42
2023/09/25 00:30:55;;;;;;;6.00;1.80;;;17.60;99.90;;;;;;5131912;27;20113;-44
2023/09/25 00:33:20;;;;;;;10.30;2.20;;;17.60;99.90;;;;;;5131977;27;20015;-42
2023/09/25 00:35:46;;;;;;;7.50;1.73;;;17.60;99.90;;;;;;5131847;27;20387;-53
2023/09/25 00:38:13;;;;;;;7.18;2.65;;;17.60;99.90;;;;;;5131896;27;20136;-48
2023/09/25 00:40:38;;;;;;;3.63;1.45;;;17.60;99.90;;;;;;5131370;27;20055;-54
2023/09/25 00:43:07;;;;;;;7.88;2.42;;;17.60;99.90;;;;;;5131586;27;20433;-59
2023/09/25 00:45:37;;;;;;;7.00;2.33;;;17.60;99.90;;;;;;5131511;27;20023;-46
2023/09/25 00:48:03;;;;;;;5.05;1.80;;;17.60;99.90;;;;;;5131578;27;20467;-41
2023/09/25 00:50:30;;;;;;;5.63;2.35;;;17.60;99.90;;;;;;5121028;27;20115;-42
2023/09/25 00:53:01;;;;;;;5.32;1.60;;;17.60;99.90;;;;;;5128083;27;20050;-43
2023/09/25 00:55:26;;;;;;;5.53;1.63;;;17.60;99.90;;;;;;5131552;27;20118;-41
2023/09/25 00:57:52;;;;;;;5.25;1.55;;;17.50;99.90;;;;;;5131451;27;20106;-41
2023/09/25 01:00:18;;;;;;;5.05;1.80;;;17.50;99.90;;;;;;5131544;27;20770;-41
2023/09/25 01:02:43;;;;;;;7.82;1.70;;;17.50;99.90;;;;;;5131329;27;20467;-50
2023/09/25 01:05:10;;;;;;;16.27;1.88;;;17.40;99.90;;;;;;5131234;27;20430;-41
2023/09/25 01:07:39;;;;;;;6.10;1.90;;;17.30;99.90;;;;;;5130842;27;20364;-41
2023/09/25 01:10:16;;;;;;;6.63;1.90;;;17.20;99.90;;;;;;5130542;27;20038;-42
2023/09/25 01:12:42;;;;;;;3.47;1.50;;;17.10;99.90;;;;;;5131295;27;20030;-42
2023/09/25 01:15:08;;;;;;;3.83;1.50;;;17.00;99.90;;;;;;5130525;27;20034;-45
2023/09/25 01:17:34;;;;;;;6.43;1.75;;;16.90;99.90;;;;;;5130166;27;20042;-44
2023/09/25 01:20:11;;;;;;;4.53;1.83;;;16.90;99.90;;;;;;5130991;27;20031;-42
2023/09/25 01:22:37;;;;;;;6.30;1.60;;;16.80;99.90;;;;;;5131207;27;20015;-42
2023/09/25 01:25:03;;;;;;;5.57;1.67;;;16.80;99.90;;;;;;5131073;27;20106;-42
2023/09/25 01:27:29;;;;;;;5.82;1.52;;;16.80;99.90;;;;;;5130850;27;20479;-42
2023/09/25 01:29:54;;;;;;;4.30;1.35;;;16.80;99.90;;;;;;5120895;27;20031;-42
2023/09/25 01:32:20;;;;;;;7.78;1.77;;;16.80;99.90;;;;;;5129974;27;20031;-46
2023/09/25 01:34:46;;;;;;;8.18;1.67;;;16.80;99.90;;;;;;5131133;27;20058;-48
2023/09/25 01:37:12;;;;;;;9.57;1.92;;;16.80;99.90;;;;;;5130832;27;20023;-50
2023/09/25 01:39:37;;;;;;;4.38;1.88;;;16.80;99.90;;;;;;5130538;27;20050;-53
2023/09/25 01:42:03;;;;;;;6.07;1.52;;;16.80;99.90;;;;;;5130089;28;20037;-51
2023/09/25 01:44:29;;;;;;;3.72;1.73;;;16.80;99.90;;;;;;5112272;28;20098;-42
2023/09/25 01:46:55;;;;;;;9.20;1.75;;;16.80;99.90;;;;;;5130975;28;20023;-42
2023/09/25 01:49:21;;;;;;;12.57;1.90;;;16.80;99.90;;;;;;5129715;28;20023;-46
2023/09/25 01:51:46;;;;;;;9.02;1.88;;;16.90;99.90;;;;;;5117512;28;20087;-46
2023/09/25 01:54:14;;;;;;;4.68;1.70;;;16.90;99.90;;;;;;5130859;28;20024;-42
2023/09/25 01:56:39;;;;;;;11.50;2.47;;;16.90;99.90;;;;;;5127658;28;20019;-44
2023/09/25 01:59:05;;;;;;;6.15;2.13;;;16.90;99.90;;;;;;5130602;27;20043;-42
2023/09/25 02:01:30;;;;;;;10.38;1.90;;;16.90;99.90;;;;;;5126920;27;20035;-48
2023/09/25 02:03:56;;;;;;;6.68;1.95;;;16.90;99.90;;;;;;5110970;28;20043;-57
2023/09/25 02:06:22;;;;;;;3.83;1.85;;;16.90;99.90;;;;;;5124560;27;20015;-51
2023/09/25 02:08:47;;;;;;;11.63;1.77;;;17.00;99.90;;;;;;5120574;27;20024;-46
2023/09/25 02:11:13;;;;;;;4.30;1.40;;;17.00;99.90;;;;;;5130642;28;20031;-50
2023/09/25 02:13:39;;;;;;;8.30;1.60;;;17.00;99.90;;;;;;5130561;27;20107;-54
2023/09/25 02:16:04;;;;;;;6.97;2.90;;;17.00;99.90;;;;;;5116566;28;20103;-56
2023/09/25 02:18:30;;;;;;;7.88;2.05;;;17.00;99.90;;;;;;5109853;28;20077;-55
2023/09/25 02:20:55;;;;;;;4.40;1.60;;;17.00;99.90;;;;;;5109952;28;20031;-55
2023/09/25 02:23:21;;;;;;;5.78;1.70;;;17.00;99.90;;;;;;5128043;28;20019;-45
2023/09/25 02:25:47;;;;;;;6.95;1.98;;;17.00;99.90;;;;;;5130664;27;20019;-48
2023/09/25 02:28:12;;;;;;;7.13;1.90;;;17.00;99.90;;;;;;5130683;27;20027;-52
2023/09/25 02:30:38;;;;;;;7.32;1.75;;;17.10;99.90;;;;;;5132305;27;20075;-50
2023/09/25 02:33:04;;;;;;;6.78;1.95;;;17.10;99.90;;;;;;5120930;27;20034;-58
2023/09/25 02:35:31;;;;;;;8.00;1.75;;;17.10;99.90;;;;;;5113189;27;20030;-58
2023/09/25 02:37:57;;;;;;;4.82;1.88;;;17.10;99.90;;;;;;5125141;27;20020;-53
2023/09/25 02:40:24;;;;;;;4.50;1.67;;;17.10;99.90;;;;;;5133841;27;20040;-49
2023/09/25 02:42:49;;;;;;;6.85;1.77;;;17.10;99.90;;;;;;5133539;27;20472;-54
2023/09/25 02:45:16;;;;;;;6.35;1.60;;;17.20;99.90;;;;;;5133620;27;20046;-56
2023/09/25 02:47:42;;;;;;;6.97;1.98;;;17.20;99.90;;;;;;5134002;27;20100;-55
2023/09/25 02:50:08;;;;;;;8.13;1.98;;;17.10;99.90;;;;;;5133778;27;20028;-54
2023/09/25 02:52:33;;;;;;;8.65;2.25;;;17.20;99.90;;;;;;5133813;27;20030;-48
2023/09/25 02:54:59;;;;;;;6.97;1.60;;;17.20;99.90;;;;;;5133919;27;20134;-49
2023/09/25 02:57:25;;;;;;;7.45;1.92;;;17.20;99.90;;;;;;5133538;27;20473;-52
2023/09/25 02:59:50;;;;;;;6.53;1.67;;;17.20;99.90;;;;;;5133589;27;20130;-57
2023/09/25 03:02:18;;;;;;;7.43;2.08;;;17.20;99.90;;;;;;5133441;27;20025;-50
2023/09/25 03:04:44;;;;;;;5.35;1.63;;;17.10;99.90;;;;;;5133603;27;20016;-53
2023/09/25 03:07:09;;;;;;;9.38;2.08;;;17.10;99.90;;;;;;5120665;27;20095;-50
2023/09/25 03:09:35;;;;;;;7.07;1.83;;;17.10;99.90;;;;;;5113144;28;20035;-54
2023/09/25 03:12:01;;;;;;;8.40;1.90;;;17.10;99.90;;;;;;5123955;27;20099;-53
2023/09/25 03:14:27;;;;;;;4.90;1.67;;;17.00;99.90;;;;;;5133160;27;20023;-45
2023/09/25 03:16:53;;;;;;;6.65;2.30;;;17.10;99.90;;;;;;5133768;27;20039;-58
2023/09/25 03:19:18;;;;;;;4.68;1.60;;;17.00;99.90;;;;;;5133386;27;20035;-48
2023/09/25 03:21:44;;;;;;;8.18;1.52;;;17.10;99.90;;;;;;5133537;27;20016;-49
2023/09/25 03:24:10;;;;;;;7.82;1.85;;;17.10;99.90;;;;;;5133311;27;20031;-42
2023/09/25 03:26:37;;;;;;;8.43;1.77;;;17.10;99.90;;;;;;5133027;27;20034;-42
2023/09/25 03:29:04;;;;;;;6.68;1.83;;;17.00;99.90;;;;;;5132540;27;20083;-42
2023/09/25 03:31:30;;;;;;;8.52;2.15;;;17.10;99.90;;;;;;5132337;27;20027;-49
2023/09/25 03:33:55;;;;;;;5.32;1.60;;;17.10;99.90;;;;;;5133091;27;20072;-50
2023/09/25 03:36:21;;;;;;;8.77;2.20;;;17.10;99.90;;;;;;5132750;27;20487;-44
2023/09/25 03:38:47;;;;;;;11.02;2.78;;;17.10;99.90;;;;;;5133008;27;20135;-55
2023/09/25 03:41:12;;;;;;;6.43;1.65;;;17.10;99.90;;;;;;5132217;27;20043;-46
2023/09/25 03:43:39;;;;;;;5.22;1.80;;;17.10;99.90;;;;;;5118293;27;20085;-52
2023/09/25 03:46:06;;;;;;;6.78;2.00;;;17.10;99.90;;;;;;5132956;27;20518;-47
2023/09/25 03:48:31;;;;;;;5.03;1.58;;;17.10;99.90;;;;;;5132673;27;20094;-57
2023/09/25 03:50:57;;;;;;;8.13;2.40;;;17.10;99.90;;;;;;5132436;27;20099;-49
2023/09/25 03:53:22;;;;;;;6.97;2.13;;;17.10;99.90;;;;;;5132941;27;20080;-55
2023/09/25 03:55:48;;;;;;;5.55;2.10;;;17.10;99.90;;;;;;5132704;27;20070;-42
2023/09/25 03:58:14;;;;;;;5.90;1.85;;;17.10;99.90;;;;;;5132717;27;20038;-51
2023/09/25 04:00:40;;;;;;;8.15;1.90;;;17.10;99.90;;;;;;5132296;27;20031;-52
2023/09/25 04:03:06;;;;;;;10.88;2.42;;;17.10;99.90;;;;;;5132711;27;20033;-54
2023/09/25 04:05:34;;;;;;;8.18;1.83;;;17.10;99.90;;;;;;5132444;27;20023;-51
2023/09/25 04:08:00;;;;;;;10.53;1.60;;;17.10;99.90;;;;;;5112073;27;20062;-44
2023/09/25 04:10:27;;;;;;;5.95;1.92;;;17.10;99.90;;;;;;5111950;28;20116;-51
2023/09/25 04:12:53;;;;;;;4.78;1.50;;;17.10;99.90;;;;;;5129884;27;20091;-54
2023/09/25 04:15:22;;;;;;;14.45;2.38;;;17.10;99.90;;;;;;5132153;27;20024;-51
2023/09/25 04:17:50;;;;;;;4.75;1.48;;;17.10;99.90;;;;;;5132178;27;20019;-52
2023/09/25 04:20:25;;;;;;;7.40;2.13;;;17.10;99.90;;;;;;5132083;27;20165;-45
2023/09/25 04:22:52;;;;;;;7.35;1.58;;;17.10;99.90;;;;;;5132213;27;20098;-55
2023/09/25 04:25:19;;;;;;;7.72;1.80;;;17.10;99.90;;;;;;5132206;27;20079;-45
2023/09/25 04:27:50;;;;;;;3.45;1.75;;;17.10;99.90;;;;;;5132053;27;20030;-54
2023/09/25 04:30:17;;;;;;;8.75;2.03;;;17.20;99.90;;;;;;5131939;27;20027;-55
2023/09/25 04:32:44;;;;;;;4.90;1.67;;;17.10;99.90;;;;;;5131860;27;20436;-49
2023/09/25 04:35:13;;;;;;;5.57;1.40;;;17.10;99.90;;;;;;5131624;27;20019;-56
2023/09/25 04:37:39;;;;;;;5.15;1.60;;;17.10;99.90;;;;;;5132074;27;20027;-56
2023/09/25 04:40:14;;;;;;;3.67;1.48;;;17.10;99.90;;;;;;5131533;27;20472;-50
2023/09/25 04:42:41;;;;;;;7.60;1.98;;;17.10;99.90;;;;;;5131447;27;20391;-51
2023/09/25 04:45:12;;;;;;;6.80;1.63;;;17.10;99.90;;;;;;5130976;27;20107;-49
2023/09/25 04:47:39;;;;;;;5.80;1.95;;;17.10;99.90;;;;;;5131635;27;20019;-48
2023/09/25 04:50:05;;;;;;;6.95;1.85;;;17.10;99.90;;;;;;5131726;27;20023;-49
2023/09/25 04:52:31;;;;;;;7.68;1.52;;;17.10;99.90;;;;;;5130920;27;20025;-52
2023/09/25 04:54:57;;;;;;;5.82;1.70;;;17.00;99.90;;;;;;5131435;27;20031;-51
2023/09/25 04:57:23;;;;;;;8.80;1.98;;;17.10;99.90;;;;;;5131616;27;20375;-43
2023/09/25 04:59:48;;;;;;;3.88;1.50;;;17.10;99.90;;;;;;5112855;27;20030;-57
2023/09/25 05:02:14;;;;;;;5.82;1.83;;;17.10;99.90;;;;;;5130822;27;20556;-46
2023/09/25 05:04:39;;;;;;;5.18;1.40;;;17.20;99.90;;;;;;5131221;27;20092;-52
2023/09/25 05:07:05;;;;;;;6.50;1.83;;;17.20;99.90;;;;;;5118837;27;20436;-52
2023/09/25 05:09:30;;;;;;;15.68;2.20;;;17.20;99.90;;;;;;5110561;28;20075;-49
2023/09/25 05:11:56;;;;;;;5.72;1.60;;;17.20;99.90;;;;;;5120916;27;20023;-53
2023/09/25 05:14:22;;;;;;;3.55;1.35;;;17.20;99.90;;;;;;5131088;27;20028;-43
2023/09/25 05:16:47;;;;;;;6.78;1.50;;;17.20;99.90;;;;;;5131412;27;20027;-52
2023/09/25 05:19:13;;;;;;;4.85;1.65;;;17.20;99.90;;;;;;5130887;27;20046;-42
2023/09/25 05:21:39;;;;;;;4.07;1.20;;;17.20;99.90;;;;;;5131103;27;20021;-47
2023/09/25 05:24:05;;;;;;;5.05;1.50;;;17.20;99.90;;;;;;5130951;27;20027;-51
2023/09/25 05:26:36;;;;;;;4.65;1.80;;;17.20;99.90;;;;;;5130806;27;20011;-51
2023/09/25 05:29:02;;;;;;;3.42;1.45;;;17.20;99.90;;;;;;5130980;27;20024;-47
2023/09/25 05:31:28;;;;;;;3.95;1.48;;;17.20;99.90;;;;;;5130986;27;20035;-54
2023/09/25 05:33:53;;;;;;;4.30;1.17;;;17.20;99.90;;;;;;5130729;27;20037;-47
2023/09/25 05:36:20;;;;;;;6.80;1.25;;;17.20;99.90;;;;;;5130148;27;20388;-60
2023/09/25 05:38:46;;;;;;;4.70;1.30;;;17.20;99.90;;;;;;5130280;27;20585;-56
2023/09/25 05:41:12;;;;;;;6.32;1.58;;;17.20;99.90;;;;;;5129315;27;20149;-45
2023/09/25 05:43:38;;;;;;;3.58;1.38;;;17.20;99.90;;;;;;5110822;28;20026;-55
2023/09/25 05:46:04;;;;;;;3.55;1.42;;;17.10;99.90;;;;;;5110632;28;20115;-59
2023/09/25 05:48:29;;;;;;;9.18;1.67;;;17.10;99.90;;;;;;5110147;28;20103;-54
2023/09/25 05:50:55;;;;;;;4.78;1.50;;;17.10;99.90;;;;;;5110048;28;20131;-49
2023/09/25 05:53:22;;;;;;;5.05;1.48;;;17.00;99.90;;;;;;5109595;28;20027;-58
2023/09/25 05:55:47;;;;;;;7.45;1.77;;;16.90;99.90;;;;;;5110159;28;20503;-59
2023/09/25 05:58:13;;;;;;;8.73;1.65;;;16.90;99.90;;;;;;5110255;28;20051;-50
2023/09/25 06:00:44;;;;;;;5.55;1.65;;;16.80;99.90;;;;;;5109860;28;20341;-49
2023/09/25 06:03:10;;;;;;;6.15;1.52;;;16.80;99.90;;;;;;5110244;28;20019;-53
2023/09/25 06:05:36;;;;;;;6.70;1.67;;;16.70;99.90;;;;;;5127442;27;20031;-53
2023/09/25 06:08:01;;;;;;;7.93;1.70;;;16.70;99.90;;;;;;5114031;28;20015;-50
2023/09/25 06:10:27;;;;;;;8.65;2.20;;;16.60;99.90;;;;;;5114044;28;20118;-49
2023/09/25 06:12:53;;;;;;;4.22;1.50;;;16.50;99.90;;;;;;5131994;27;20024;-54
2023/09/25 06:15:18;;;;;;;6.78;1.67;;;16.50;99.90;;;;;;5134423;27;20066;-58
2023/09/25 06:17:45;;;;;;;8.05;1.70;;;16.50;99.90;;;;;;5134194;27;20023;-45
2023/09/25 06:20:20;;;;;;;7.35;1.80;;;16.40;99.90;;;;;;5134382;27;20043;-55
2023/09/25 06:22:46;;;;;;;10.18;3.17;;;16.40;99.90;;;;;;5134150;27;20031;-56
2023/09/25 06:25:16;;;;;;;9.45;1.63;;;16.40;99.90;;;;;;5134300;27;20384;-50
2023/09/25 06:27:44;;;;;;;8.73;1.98;;;16.40;99.90;;;;;;5134504;27;20027;-51
2023/09/25 06:30:11;;;;;;;7.50;2.00;;;16.40;99.90;;;;;;5134073;27;20121;-52
2023/09/25 06:32:37;;;;;;;3.20;1.33;;;16.30;99.90;;;;;;5134187;27;20024;-53
2023/09/25 06:35:03;;;;;;;11.05;1.92;;;16.30;99.90;;;;;;5133907;27;20019;-47
2023/09/25 06:37:30;;;;;;;3.95;1.45;;;16.20;99.90;;;;;;5134481;27;20533;-59
2023/09/25 06:39:55;;;;;;;5.68;1.38;;;16.20;99.90;;;;;;5134015;27;20092;-58
2023/09/25 06:42:21;;;;;;;7.00;1.40;;;16.20;99.90;;;;;;5129002;27;20027;-48
2023/09/25 06:44:46;;;;;;;14.02;1.73;;;16.20;99.90;;;;;;5113419;28;20030;-57
2023/09/25 06:47:12;;;;;;;6.40;1.80;;;16.20;99.90;;;;;;5113429;27;20019;-56
2023/09/25 06:49:37;;;;;;;5.35;1.52;;;16.30;99.90;;;;;;5128978;27;20024;-52
2023/09/25 06:52:03;;;;;;;8.23;2.33;;;16.30;99.90;;;;;;5113207;27;20114;-59
2023/09/25 06:54:29;;;;;;;4.38;1.42;;;16.30;99.90;;;;;;5113286;28;20533;-44
2023/09/25 06:56:55;;;;;;;5.53;1.30;;;16.30;99.90;;;;;;5113316;27;20015;-55
2023/09/25 06:59:21;;;;;;;3.67;1.23;;;16.30;99.90;;;;;;5113059;28;20035;-51
2023/09/25 07:01:46;;;;;;;6.55;1.60;;;16.30;99.90;;;;;;5114240;27;20539;-41
2023/09/25 07:04:12;;;;;;;5.53;1.35;;;16.40;99.90;;;;;;5125658;27;20075;-48
2023/09/25 07:06:38;;;;;;;9.40;1.50;;;16.40;99.90;;;;;;5133183;27;20042;-53
2023/09/25 07:09:03;;;;;;;9.50;1.90;;;16.40;99.90;;;;;;5133285;27;20051;-51
2023/09/25 07:11:29;;;;;;;9.18;2.00;;;16.50;99.90;;;;;;5113248;28;20503;-52
2023/09/25 07:13:55;;;;;;;6.35;2.05;;;16.50;99.90;;;;;;5125764;27;20019;-39
2023/09/25 07:16:20;;;;;;;9.10;2.22;;;16.60;99.90;;;;;;5132329;27;20026;-40
2023/09/25 07:18:47;;;;;;;4.15;1.70;;;16.70;99.90;;;;;;5115074;27;20527;-59
2023/09/25 07:21:15;;;;;;;11.32;1.75;;;16.70;99.90;;;;;;5133546;27;20038;-55
2023/09/25 07:23:40;;;;;;;9.85;1.95;;;16.80;99.90;;;;;;5126539;27;20031;-58
2023/09/25 07:26:08;;;;;;;8.88;1.85;;;16.90;99.90;;;;;;5123161;27;20023;-53
2023/09/25 07:28:37;;;;;;;10.02;1.88;;;17.00;99.90;;;;;;5115201;27;20480;-57
2023/09/25 07:31:05;;;;;;;5.65;1.60;;;17.10;99.90;;;;;;5112676;28;20073;-55
2023/09/25 07:33:31;;;;;;;6.85;1.63;;;17.10;99.90;;;;;;5115131;27;20031;-53
2023/09/25 07:35:58;;;;;;;6.53;1.80;;;17.20;99.90;;;;;;5121524;27;20023;-50
2023/09/25 07:38:24;;;;;;;7.03;1.95;;;17.30;99.90;;;;;;5096128;28;20012;-39
2023/09/25 07:40:50;;;;;;;8.85;1.70;;;17.50;99.90;;;;;;5112463;28;20485;-41
2023/09/25 07:43:19;;;;;;;8.07;1.75;;;17.80;99.90;;;;;;5112671;28;20045;-42
2023/09/25 07:45:48;;;;;;;8.57;2.03;;;18.20;99.90;;;;;;5118314;27;20438;-47
2023/09/25 07:48:16;;;;;;;9.13;1.88;;;18.70;99.90;;;;;;5118973;27;20422;-49
2023/09/25 07:50:45;;;;;;;9.57;1.80;;;19.30;99.90;;;;;;5115057;27;20082;-57
2023/09/25 07:53:12;;;;;;;6.97;1.83;;;19.70;99.90;;;;;;5113427;27;20441;-49
2023/09/25 07:55:38;;;;;;;5.60;1.38;;;20.30;99.90;;;;;;5118817;27;20027;-53
2023/09/25 07:58:05;;;;;;;7.70;1.67;;;20.70;99.90;;;;;;5127472;27;20019;-59
2023/09/25 08:00:39;;;;;;;6.90;1.75;;;20.90;99.90;;;;;;5120662;27;20089;-43
2023/09/25 08:03:06;;;;;;;6.95;1.13;;;21.30;99.90;;;;;;5122472;27;20024;-54
2023/09/25 08:05:32;;;;;;;7.43;1.40;;;21.70;99.90;;;;;;5116017;27;20042;-48
2023/09/25 08:07:58;;;;;;;11.43;1.52;;;22.00;99.90;;;;;;5125068;27;20015;-58
2023/09/25 08:10:24;;;;;;;6.32;1.73;;;22.30;99.90;;;;;;5119388;27;20035;-59
2023/09/25 08:12:49;;;;;;;8.85;1.60;;;22.60;99.90;;;;;;5111605;28;20047;-50
2023/09/25 08:15:15;;;;;;;4.50;1.13;;;22.60;99.90;;;;;;5111641;28;20031;-52
2023/09/25 08:17:46;;;;;;;7.05;1.83;;;22.70;99.90;;;;;;5111581;27;20026;-43
2023/09/25 08:20:20;;;;;;;8.32;2.25;;;22.70;99.90;;;;;;5111891;28;20519;-39
2023/09/25 08:22:48;;;;;;;5.20;1.50;;;23.00;99.90;;;;;;5119817;27;20119;-38
2023/09/25 08:25:14;;;;;;;6.05;1.58;;;23.20;99.90;;;;;;5112264;28;20030;-39
2023/09/25 08:27:39;;;;;;;8.18;1.70;;;23.00;99.90;;;;;;5119001;27;20031;-41
2023/09/25 08:30:06;;;;;;;7.32;1.45;;;22.80;99.90;;;;;;5114279;27;20027;-38
2023/09/25 08:32:32;;;;;;;4.32;1.30;;;22.70;99.90;;;;;;5111782;28;20023;-38
2023/09/25 08:34:58;;;;;;;7.50;1.88;;;22.40;99.90;;;;;;5111765;27;20400;-48
2023/09/25 08:37:27;;;;;;;6.90;1.65;;;22.20;99.90;;;;;;5118779;27;20019;-52
2023/09/25 08:39:53;;;;;;;5.28;1.27;;;22.50;99.90;;;;;;5128181;27;20074;-53
2023/09/25 08:42:24;;;;;;;5.10;1.60;;;22.80;99.90;;;;;;5123156;27;20028;-62
2023/09/25 08:44:51;;;;;;;7.03;1.73;;;23.00;99.90;;;;;;5110990;28;20511;-45
2023/09/25 08:47:21;;;;;;;4.18;0.90;;;23.50;99.90;;;;;;5110904;28;20019;-46
2023/09/25 08:49:50;;;;;;;6.35;1.02;;;23.80;99.90;;;;;;5111252;28;20043;-50
2023/09/25 08:52:17;;;;;;;7.43;2.08;;;23.80;99.90;;;;;;5111167;28;20098;-50
2023/09/25 08:54:42;;;;;;;3.83;1.30;;;24.10;99.90;;;;;;5111071;28;20055;-49
2023/09/25 08:57:09;;;;;;;6.15;1.58;;;24.30;99.90;;;;;;5111716;27;20499;-59
2023/09/25 08:59:37;;;;;;;4.32;1.30;;;24.40;99.90;;;;;;5115851;27;20450;-55
2023/09/25 09:02:09;;;;;;;6.40;1.42;;;24.50;99.90;;;;;;5109349;28;20041;-42
2023/09/25 09:04:37;;;;;;;9.57;1.58;;;24.70;99.90;;;;;;5114814;27;20019;-58
2023/09/25 09:07:08;;;;;;;6.50;1.60;;;24.80;99.90;;;;;;5118637;27;20537;-56
2023/09/25 09:09:35;;;;;;;5.15;1.45;;;25.30;99.90;;;;;;5110529;28;20024;-49
2023/09/25 09:12:03;;;;;;;2.40;0.90;;;25.40;99.90;;;;;;5121877;27;20559;-52
2023/09/25 09:14:36;;;;;;;5.40;1.35;;;25.60;99.90;;;;;;5131031;27;20041;-56
2023/09/25 09:17:06;;;;;;;4.68;1.40;;;25.40;99.90;;;;;;5130679;27;20107;-52
2023/09/25 09:19:37;;;;;;;3.38;0.93;;;25.70;99.90;;;;;;5130906;27;20031;-47
2023/09/25 09:22:07;;;;;;;5.95;1.50;;;25.60;99.90;;;;;;5131550;27;20030;-54
2023/09/25 09:24:36;;;;;;;5.68;1.35;;;25.70;99.90;;;;;;5131221;27;20023;-49
2023/09/25 09:27:07;;;;;;;4.18;1.40;;;25.90;99.90;;;;;;5131356;27;20057;-58
2023/09/25 09:29:44;;;;;;;5.32;1.58;;;25.90;99.90;;;;;;5131120;27;20031;-48
2023/09/25 09:32:10;;;;;;;7.90;1.27;;;25.90;99.90;;;;;;5123121;27;20119;-42
2023/09/25 09:34:38;;;;;;;3.83;1.08;;;25.80;99.90;;;;;;5131157;27;20035;-54
2023/09/25 09:37:09;;;;;;;8.48;1.40;;;25.80;99.90;;;;;;5131356;27;20038;-44
2023/09/25 09:39:36;;;;;;;5.47;1.27;;;25.70;99.90;;;;;;5130246;27;20130;-41
2023/09/25 09:42:04;;;;;;;4.68;1.35;;;25.90;99.90;;;;;;5130965;27;20031;-44
2023/09/25 09:44:31;;;;;;;6.15;1.52;;;26.10;99.90;;;;;;5131278;28;20054;-52
2023/09/25 09:46:56;;;;;;;3.55;0.90;;;26.50;99.90;;;;;;5130773;28;20484;-53
2023/09/25 09:49:24;;;;;;;3.55;1.02;;;26.40;99.90;;;;;;5131163;27;20062;-54
2023/09/25 09:51:51;;;;;;;4.23;1.17;;;26.60;99.90;;;;;;5130984;27;20047;-50
2023/09/25 09:54:19;;;;;;;3.63;1.05;;;26.50;99.90;;;;;;5131083;27;20268;-54
2023/09/25 09:56:49;;;;;;;7.50;1.60;;;26.60;99.90;;;;;;5131069;28;20034;-57
2023/09/25 09:59:16;;;;;;;6.53;1.10;;;26.80;99.90;;;;;;5130960;27;20039;-54
2023/09/25 10:01:47;;;;;;;5.53;1.50;;;26.60;99.90;;;;;;5130311;27;20012;-52
2023/09/25 10:04:15;;;;;;;8.50;1.63;;;26.60;99.90;;;;;;5121747;28;20027;-55
2023/09/25 10:06:58;;;;;;;5.90;1.48;;;26.30;99.90;;;;;;5121609;28;20096;-50
2023/09/25 10:09:26;;;;;;;6.45;2.05;;;26.50;99.90;;;;;;5110164;28;20028;-55
2023/09/25 10:11:54;;;;;;;5.57;1.47;;;26.70;99.90;;;;;;5119892;28;20616;-56
2023/09/25 10:14:21;;;;;;;6.25;1.35;;;26.70;99.90;;;;;;5130940;28;20077;-48
2023/09/25 10:17:06;;;;;;;4.38;1.17;;;26.30;99.90;;;;;;5130749;28;20031;-50
2023/09/25 10:19:40;;;;;;;5.10;1.60;;;26.30;99.90;;;;;;5130670;28;20027;-55
2023/09/25 10:22:16;;;;;;;5.05;1.40;;;26.10;99.90;;;;;;5130730;28;20035;-54
2023/09/25 10:24:42;;;;;;;6.80;1.33;;;25.30;99.90;;;;;;5130584;28;20012;-55
2023/09/25 10:27:11;;;;;;;5.55;1.40;;;24.90;99.90;;;;;;5130765;27;20030;-53
2023/09/25 10:29:37;;;;;;;4.85;1.23;;;24.80;99.90;;;;;;5130621;28;20511;-42
2023/09/25 10:32:05;;;;;;;7.20;1.60;;;25.30;99.90;;;;;;5130798;27;20027;-51
2023/09/25 10:34:31;;;;;;;6.38;1.65;;;25.50;99.90;;;;;;5130843;27;20106;-56
2023/09/25 10:36:59;;;;;;;3.88;1.08;;;24.90;99.90;;;;;;5130504;28;20148;-51
2023/09/25 10:39:27;;;;;;;5.23;1.40;;;24.30;99.90;;;;;;5130382;28;20035;-62
2023/09/25 10:42:07;;;;;;;7.80;1.52;;;23.80;99.90;;;;;;5130474;28;20022;-57
2023/09/25 10:44:37;;;;;;;3.80;1.40;;;23.60;99.90;;;;;;5130566;28;20027;-61
2023/09/25 10:47:07;;;;;;;6.00;1.25;;;23.30;99.90;;;;;;5130467;27;20023;-53
2023/09/25 10:49:37;;;;;;;5.70;1.50;;;23.70;99.90;;;;;;5130580;28;20158;-50
2023/09/25 10:52:03;;;;;;;5.50;1.10;;;24.10;99.90;;;;;;5132901;27;20155;-55
2023/09/25 10:54:30;;;;;;;6.55;1.52;;;24.70;99.90;;;;;;5115851;27;20427;-53
2023/09/25 10:56:58;;;;;;;7.15;1.73;;;24.90;99.90;;;;;;5134196;27;20046;-63
2023/09/25 10:59:25;;;;;;;3.60;1.20;;;24.90;99.90;;;;;;5134090;27;20042;-51
2023/09/25 11:01:51;;;;;;;6.15;1.55;;;25.30;99.90;;;;;;5133980;27;20077;-48
2023/09/25 11:04:17;;;;;;;6.05;1.13;;;25.50;99.90;;;;;;5133845;27;20475;-51
2023/09/25 11:06:44;;;;;;;7.50;1.27;;;25.80;99.90;;;;;;5124707;27;20095;-50
2023/09/25 11:09:15;;;;;;;5.93;1.23;;;25.90;99.90;;;;;;5114553;27;20024;-53
2023/09/25 11:11:41;;;;;;;6.75;1.70;;;25.60;99.90;;;;;;5133726;27;20020;-46
2023/09/25 11:14:07;;;;;;;4.88;1.50;;;24.80;99.90;;;;;;5133805;27;20038;-57
2023/09/25 11:16:34;;;;;;;5.13;1.92;;;24.80;99.90;;;;;;5133452;27;20054;-56
2023/09/25 11:19:11;;;;;;;6.03;1.67;;;24.50;99.90;;;;;;5133519;27;20039;-59
2023/09/25 11:21:39;;;;;;;7.80;1.73;;;25.20;99.90;;;;;;5133339;27;20026;-53
2023/09/25 11:24:10;;;;;;;5.57;1.52;;;25.90;99.90;;;;;;5114957;27;20360;-59
2023/09/25 11:26:37;;;;;;;5.43;1.30;;;26.40;99.90;;;;;;5132084;27;20026;-53
2023/09/25 11:29:06;;;;;;;6.25;1.58;;;26.50;99.90;;;;;;5131982;27;20168;-57
2023/09/25 11:31:31;;;;;;;;;;;26.20;99.90;;;;;;5132240;27;20026;-51
2023/09/25 11:33:57;;;;;;;8.07;2.33;;;26.20;99.90;;;;;;5130818;27;19903;-57
2023/09/25 11:36:22;;;;;;;4.80;1.48;;;25.90;99.90;;;;;;5128186;27;20027;-49
2023/09/25 11:38:49;;;;;;;5.60;1.40;;;25.60;99.90;;;;;;5120150;27;20030;-42
2023/09/25 11:41:15;;;;;;;8.93;2.58;;;25.60;99.90;;;;;;5122939;27;20047;-44
2023/09/25 11:43:40;;;;;;;3.28;1.05;;;25.60;99.90;;;;;;5132898;27;20030;-60
2023/09/25 11:46:06;;;;;;;7.90;1.58;;;25.70;99.90;;;;;;5124209;27;20023;-55
2023/09/25 11:48:33;;;;;;;8.20;1.45;;;25.90;99.90;;;;;;5113677;27;20388;-44
2023/09/25 11:50:59;;;;;;;7.70;1.70;;;26.00;99.90;;;;;;5112450;27;20020;-53
2023/09/25 11:53:24;;;;;;;6.22;1.77;;;26.50;99.90;;;;;;5119179;27;20031;-53
2023/09/25 11:55:50;;;;;;;7.30;1.77;;;26.50;99.90;;;;;;5119906;27;20028;-56
2023/09/25 11:58:16;;;;;;;5.63;1.38;;;26.60;99.90;;;;;;5111862;28;20513;-58
2023/09/25 12:00:41;;;;;;;8.05;2.15;;;26.60;99.90;;;;;;5111949;28;20066;-56
2023/09/25 12:03:08;;;;;;;5.75;1.58;;;26.70;99.90;;;;;;5111369;28;20361;-51
2023/09/25 12:05:35;;;;;;;6.10;1.13;;;27.00;99.90;;;;;;5125903;27;20368;-55
2023/09/25 12:08:01;;;;;;;6.88;1.63;;;26.70;99.90;;;;;;5132493;27;20076;-61
2023/09/25 12:10:26;;;;;;;6.03;1.42;;;26.30;99.90;;;;;;5132113;27;20535;-47
2023/09/25 12:12:53;;;;;;;4.85;1.48;;;25.90;99.90;;;;;;5120919;27;20030;-57
2023/09/25 12:15:18;;;;;;;6.28;1.35;;;25.50;99.90;;;;;;5118863;27;20476;-49
2023/09/25 12:17:44;;;;;;;5.45;1.58;;;25.30;99.90;;;;;;5111782;28;20064;-58
2023/09/25 12:20:13;;;;;;;6.53;1.35;;;25.40;99.90;;;;;;5111433;28;20032;-52
2023/09/25 12:22:44;;;;;;;9.25;1.80;;;25.60;99.90;;;;;;5111458;28;20149;-58
2023/09/25 12:25:11;;;;;;;4.25;1.38;;;25.50;99.90;;;;;;5112731;27;20055;-54
2023/09/25 12:27:41;;;;;;;5.47;1.67;;;25.40;99.90;;;;;;5118531;27;20072;-44
2023/09/25 12:30:11;;;;;;;4.00;1.10;;;25.10;99.90;;;;;;5111652;28;20063;-50
2023/09/25 12:32:38;;;;;;;6.57;1.88;;;24.90;99.90;;;;;;5111459;28;20020;-37
2023/09/25 12:35:07;;;;;;;3.30;1.15;;;24.90;99.90;;;;;;5111148;28;20476;-49
2023/09/25 12:37:34;;;;;;;9.25;1.52;;;24.90;99.90;;;;;;5111198;28;20015;-39
2023/09/25 12:40:00;;;;;;;5.13;1.38;;;24.90;99.90;;;;;;5110991;28;20047;-38
2023/09/25 12:42:26;;;;;;;5.28;1.50;;;24.80;99.90;;;;;;5124161;27;20030;-38
2023/09/25 12:44:52;;;;;;;5.40;1.25;;;25.00;99.90;;;;;;5131585;27;20480;-37